createdAt,value
2023-12-05T00:02:18.002Z,-8.97
2023-12-05T00:06:21.405Z,-8.87
2023-12-05T00:10:24.744Z,-8.80
2023-12-05T00:14:28.112Z,-8.73
2023-12-05T00:18:31.512Z,-8.64
2023-12-05T00:22:34.887Z,-8.52
2023-12-05T00:26:38.296Z,-8.38
2023-12-05T00:30:42.017Z,-8.32
2023-12-05T00:34:49.445Z,-8.32
2023-12-05T00:38:52.938Z,-8.31
2023-12-05T00:42:58.735Z,-8.23
2023-12-05T00:47:04.845Z,-8.20
2023-12-05T00:51:08.658Z,-8.13
2023-12-05T00:55:12.057Z,-8.06
2023-12-05T00:59:15.425Z,-8.03
2023-12-05T01:03:20.846Z,-7.98
2023-12-05T01:07:24.645Z,-7.97
2023-12-05T01:11:28.016Z,-7.95
2023-12-05T01:15:31.342Z,-7.91
2023-12-05T01:19:36.610Z,-7.87
2023-12-05T01:23:39.906Z,-7.79
2023-12-05T01:27:43.291Z,-7.73
2023-12-05T01:31:46.628Z,-7.72
2023-12-05T01:35:51.420Z,-7.70
2023-12-05T01:39:54.913Z,-7.64
2023-12-05T01:43:58.770Z,-7.64
2023-12-05T01:48:03.628Z,-7.64
2023-12-05T01:52:07.087Z,-7.61
2023-12-05T01:56:12.752Z,-7.59
2023-12-05T02:00:17.627Z,-7.56
2023-12-05T02:04:22.658Z,-7.49
2023-12-05T02:08:29.439Z,-7.42
2023-12-05T02:12:32.825Z,-7.35
2023-12-05T02:16:46.885Z,-7.28
2023-12-05T02:21:01.412Z,-7.21
2023-12-05T02:25:22.230Z,-7.15
2023-12-05T02:29:25.937Z,-7.11
2023-12-05T02:33:29.541Z,-7.09
2023-12-05T02:37:44.839Z,-7.07
2023-12-05T02:41:54.574Z,-7.05
2023-12-05T02:46:08.827Z,-7.03
2023-12-05T02:50:13.815Z,-7.00
2023-12-05T02:54:17.341Z,-6.96
2023-12-05T02:58:20.723Z,-6.94
2023-12-05T03:02:24.141Z,-6.92
2023-12-05T03:06:28.821Z,-6.93
2023-12-05T03:10:33.241Z,-6.92
2023-12-05T03:14:36.539Z,-6.93
2023-12-05T03:18:40.230Z,-6.93
2023-12-05T03:22:44.201Z,-6.92
2023-12-05T03:26:48.020Z,-6.89
2023-12-05T03:30:51.436Z,-6.88
2023-12-05T03:34:54.864Z,-6.85
2023-12-05T03:38:58.841Z,-6.83
2023-12-05T03:43:02.234Z,-6.82
2023-12-05T03:47:05.660Z,-6.81
2023-12-05T03:51:08.989Z,-6.80
2023-12-05T03:55:12.456Z,-6.78
2023-12-05T03:59:15.746Z,-6.72
2023-12-05T04:03:20.725Z,-6.67
2023-12-05T04:07:24.300Z,-6.63
2023-12-05T04:11:35.263Z,-6.60
2023-12-05T04:15:40.604Z,-6.56
2023-12-05T04:19:44.138Z,-6.54
2023-12-05T04:23:48.084Z,-6.51
2023-12-05T04:27:51.556Z,-6.49
2023-12-05T04:31:54.977Z,-6.46
2023-12-05T04:35:59.090Z,-6.42
2023-12-05T04:40:05.379Z,-6.39
2023-12-05T04:44:09.253Z,-6.36
2023-12-05T04:48:12.726Z,-6.34
2023-12-05T04:52:16.633Z,-6.34
2023-12-05T04:56:20.035Z,-6.32
2023-12-05T05:00:23.384Z,-6.32
2023-12-05T05:04:26.915Z,-6.32
2023-12-05T05:08:30.311Z,-6.29
2023-12-05T05:12:33.702Z,-6.27
2023-12-05T05:16:37.066Z,-6.23
2023-12-05T05:20:40.528Z,-6.21
2023-12-05T05:24:44.012Z,-6.22
2023-12-05T05:28:47.504Z,-6.23
2023-12-05T05:32:50.900Z,-6.21
2023-12-05T05:36:54.329Z,-6.23
2023-12-05T05:41:08.913Z,-6.22
2023-12-05T05:45:13.326Z,-6.20
2023-12-05T05:49:16.758Z,-6.19
2023-12-05T05:53:20.178Z,-6.18
2023-12-05T05:57:23.630Z,-6.18
2023-12-05T06:01:26.973Z,-6.18
2023-12-05T06:05:30.745Z,-6.21
2023-12-05T06:09:34.854Z,-6.24
2023-12-05T06:13:38.207Z,-6.26
2023-12-05T06:17:41.856Z,-6.26
2023-12-05T06:21:45.384Z,-6.28
2023-12-05T06:25:48.797Z,-6.28
2023-12-05T06:29:52.157Z,-6.29
2023-12-05T06:33:55.606Z,-6.29
2023-12-05T06:37:58.892Z,-6.30
2023-12-05T06:42:02.166Z,-6.30
2023-12-05T06:46:06.098Z,-6.29
2023-12-05T06:50:12.918Z,-6.29
2023-12-05T06:54:16.689Z,-6.29
2023-12-05T06:58:19.998Z,-6.28
2023-12-05T07:02:23.345Z,-6.25
2023-12-05T07:06:26.932Z,-6.22
2023-12-05T07:10:30.454Z,-6.18
2023-12-05T07:14:37.178Z,-6.16
2023-12-05T07:18:41.802Z,-6.10
2023-12-05T07:22:45.711Z,-6.02
2023-12-05T07:26:49.929Z,-5.95
2023-12-05T07:30:55.171Z,-5.88
2023-12-05T07:34:59.278Z,-5.78
2023-12-05T07:39:05.162Z,-5.70
2023-12-05T07:43:08.819Z,-5.62
2023-12-05T07:47:13.460Z,-5.51
2023-12-05T07:51:19.493Z,-5.41
2023-12-05T07:55:23.871Z,-5.26
2023-12-05T07:59:27.222Z,-5.13
2023-12-05T08:03:31.665Z,-4.99
2023-12-05T08:07:35.173Z,-4.84
2023-12-05T08:11:39.608Z,-4.71
2023-12-05T08:15:43.257Z,-4.55
2023-12-05T08:19:46.703Z,-4.43
2023-12-05T08:23:50.063Z,-4.33
2023-12-05T08:27:53.461Z,-4.23
2023-12-05T08:31:57.146Z,-4.06
2023-12-05T08:36:00.453Z,-3.91
2023-12-05T08:40:04.220Z,-3.78
2023-12-05T08:44:07.700Z,-3.77
2023-12-05T08:48:11.691Z,-3.76
2023-12-05T08:52:15.320Z,-3.73
2023-12-05T08:56:19.051Z,-3.73
2023-12-05T09:00:22.726Z,-3.65
2023-12-05T09:04:26.258Z,-3.60
2023-12-05T09:08:30.655Z,-3.54
2023-12-05T09:12:34.223Z,-3.48
2023-12-05T09:16:37.623Z,-3.46
2023-12-05T09:20:42.068Z,-3.42
2023-12-05T09:24:45.646Z,-3.40
2023-12-05T09:28:49.056Z,-3.36
2023-12-05T09:32:54.132Z,-3.33
2023-12-05T09:36:58.019Z,-3.35
2023-12-05T09:41:04.053Z,-3.34
2023-12-05T09:45:15.256Z,-3.26
2023-12-05T09:49:23.669Z,-3.23
2023-12-05T09:53:29.407Z,-3.18
2023-12-05T09:57:33.519Z,-3.11
2023-12-05T10:01:37.710Z,-3.12
2023-12-05T10:05:43.874Z,-3.14
2023-12-05T10:09:48.874Z,-3.17
2023-12-05T10:13:52.325Z,-3.16
2023-12-05T10:17:56.253Z,-3.13
2023-12-05T10:22:01.168Z,-3.06
2023-12-05T10:26:04.709Z,-2.98
2023-12-05T10:30:08.516Z,-2.92
2023-12-05T10:34:11.926Z,-2.96
2023-12-05T10:38:20.796Z,-3.01
2023-12-05T10:42:27.947Z,-3.04
2023-12-05T10:46:37.990Z,-3.03
2023-12-05T10:50:42.465Z,-3.00
2023-12-05T10:54:45.932Z,-2.99
2023-12-05T10:58:50.454Z,-2.97
2023-12-05T11:02:55.261Z,-2.95
2023-12-05T11:06:58.682Z,-2.94
2023-12-05T11:11:06.528Z,-2.95
2023-12-05T11:15:11.232Z,-2.89
2023-12-05T11:19:56.333Z,-2.79
2023-12-05T11:24:26.589Z,-2.71
2023-12-05T11:28:51.980Z,-2.73
2023-12-05T11:33:19.640Z,-2.71
2023-12-05T11:37:53.903Z,-2.67
2023-12-05T11:42:11.851Z,-2.67
2023-12-05T11:46:17.883Z,-2.61
2023-12-05T11:50:21.824Z,-2.59
2023-12-05T11:54:33.304Z,-2.64
2023-12-05T11:58:36.759Z,-2.74
2023-12-05T12:02:48.986Z,-2.79
2023-12-05T12:06:52.438Z,-2.81
2023-12-05T12:10:57.443Z,-2.85
2023-12-05T12:15:00.977Z,-2.95
2023-12-05T12:19:05.282Z,-3.01
2023-12-05T12:23:08.986Z,-3.00
2023-12-05T12:27:12.903Z,-2.98
2023-12-05T12:31:27.643Z,-2.98
2023-12-05T12:35:32.578Z,-3.05
2023-12-05T12:39:37.584Z,-3.14
2023-12-05T12:43:44.164Z,-3.20
2023-12-05T12:47:47.683Z,-3.26
2023-12-05T12:51:51.277Z,-3.31
2023-12-05T12:55:54.974Z,-3.38
2023-12-05T13:00:29.864Z,-3.44
2023-12-05T13:04:21.903Z,-3.48
2023-12-05T13:08:25.525Z,-3.55
2023-12-05T13:12:29.062Z,-3.65
2023-12-05T13:16:32.393Z,-3.76
2023-12-05T13:20:50.791Z,-3.84
2023-12-05T13:24:54.180Z,-3.89
2023-12-05T13:28:57.711Z,-3.96
2023-12-05T13:33:01.129Z,-4.05
2023-12-05T13:37:04.667Z,-4.10
2023-12-05T13:41:08.046Z,-4.15
2023-12-05T13:45:13.022Z,-4.19
2023-12-05T13:49:18.591Z,-4.28
2023-12-05T13:53:24.819Z,-4.39
2023-12-05T13:57:28.508Z,-4.51
2023-12-05T14:01:31.884Z,-4.68
2023-12-05T14:05:35.346Z,-4.82
2023-12-05T14:09:38.861Z,-4.94
2023-12-05T14:13:42.233Z,-5.05
2023-12-05T14:17:45.529Z,-5.14
2023-12-05T14:21:50.025Z,-5.24
2023-12-05T14:25:53.492Z,-5.29
2023-12-05T14:29:56.930Z,-5.36
2023-12-05T14:34:00.332Z,-5.47
2023-12-05T14:38:03.710Z,-5.57
2023-12-05T14:42:07.083Z,-5.70
2023-12-05T14:46:10.479Z,-5.83
2023-12-05T14:50:14.856Z,-5.95
2023-12-05T14:54:18.165Z,-6.00
2023-12-05T14:58:22.278Z,-5.99
2023-12-05T15:02:25.783Z,-5.96
2023-12-05T15:06:29.273Z,-5.95
2023-12-05T15:10:32.599Z,-5.99
2023-12-05T15:14:36.819Z,-6.05
2023-12-05T15:18:40.248Z,-6.10
2023-12-05T15:22:44.096Z,-6.17
2023-12-05T15:26:48.637Z,-6.24
2023-12-05T15:30:52.803Z,-6.29
2023-12-05T15:34:56.137Z,-6.30
2023-12-05T15:38:59.536Z,-6.31
2023-12-05T15:43:03.042Z,-6.34
2023-12-05T15:47:08.624Z,-6.39
2023-12-05T15:51:12.036Z,-6.45
2023-12-05T15:55:15.858Z,-6.52
2023-12-05T15:59:21.006Z,-6.63
2023-12-05T16:03:24.475Z,-6.72
2023-12-05T16:07:28.293Z,-6.77
2023-12-05T16:11:32.130Z,-6.79
2023-12-05T16:15:35.421Z,-6.77
2023-12-05T16:19:39.886Z,-6.73
2023-12-05T16:23:43.553Z,-6.66
2023-12-05T16:27:46.858Z,-6.63
2023-12-05T16:31:50.145Z,-6.58
2023-12-05T16:35:53.486Z,-6.54
2023-12-05T16:39:57.404Z,-6.50
2023-12-05T16:44:00.923Z,-6.44
2023-12-05T16:48:04.560Z,-6.39
2023-12-05T16:52:08.386Z,-6.37
2023-12-05T16:56:12.574Z,-6.37
2023-12-05T17:00:16.217Z,-6.37
2023-12-05T17:04:19.738Z,-6.35
2023-12-05T17:08:23.288Z,-6.31
2023-12-05T17:12:26.657Z,-6.28
2023-12-05T17:16:30.013Z,-6.24
2023-12-05T17:20:33.846Z,-6.21
2023-12-05T17:24:37.372Z,-6.25
2023-12-05T17:28:40.756Z,-6.28
2023-12-05T17:32:44.512Z,-6.29
2023-12-05T17:36:47.942Z,-6.31
2023-12-05T17:40:51.805Z,-6.33
2023-12-05T17:44:55.487Z,-6.40
2023-12-05T17:49:02.345Z,-6.45
2023-12-05T17:53:05.867Z,-6.49
2023-12-05T17:57:11.855Z,-6.53
2023-12-05T18:01:15.242Z,-6.58
2023-12-05T18:05:18.947Z,-6.60
2023-12-05T18:09:25.019Z,-6.61
2023-12-05T18:13:29.885Z,-6.59
2023-12-05T18:17:33.456Z,-6.61
2023-12-05T18:21:36.931Z,-6.63
2023-12-05T18:25:41.280Z,-6.66
2023-12-05T18:29:45.795Z,-6.70
2023-12-05T18:33:51.072Z,-6.74
2023-12-05T18:37:54.581Z,-6.77
2023-12-05T18:41:59.190Z,-6.79
2023-12-05T18:46:04.657Z,-6.80
2023-12-05T18:50:08.646Z,-6.84
2023-12-05T18:54:12.092Z,-6.86
2023-12-05T18:58:15.499Z,-6.85
2023-12-05T19:02:18.899Z,-6.87
2023-12-05T19:06:22.699Z,-6.87
2023-12-05T19:10:26.213Z,-6.85
2023-12-05T19:14:30.214Z,-6.85
2023-12-05T19:18:34.235Z,-6.85
2023-12-05T19:22:37.835Z,-6.85
2023-12-05T19:26:41.384Z,-6.86
2023-12-05T19:30:48.330Z,-6.91
2023-12-05T19:34:52.418Z,-6.92
2023-12-05T19:38:55.840Z,-6.91
2023-12-05T19:43:00.256Z,-6.90
2023-12-05T19:47:03.708Z,-6.88
2023-12-05T19:51:07.167Z,-6.87
2023-12-05T19:55:10.621Z,-6.88
2023-12-05T19:59:15.198Z,-6.87
2023-12-05T20:03:20.185Z,-6.86
2023-12-05T20:07:23.867Z,-6.85
2023-12-05T20:11:27.159Z,-6.84
2023-12-05T20:15:32.053Z,-6.83
2023-12-05T20:19:35.610Z,-6.80
2023-12-05T20:23:38.973Z,-6.79
2023-12-05T20:27:43.822Z,-6.77
2023-12-05T20:31:47.132Z,-6.75
2023-12-05T20:35:50.552Z,-6.74
2023-12-05T20:39:53.924Z,-6.74
2023-12-05T20:43:57.311Z,-6.70
2023-12-05T20:48:04.562Z,-6.66
2023-12-05T20:52:08.111Z,-6.63
2023-12-05T20:56:11.507Z,-6.60
2023-12-05T21:00:15.056Z,-6.56
2023-12-05T21:04:19.496Z,-6.50
2023-12-05T21:08:23.058Z,-6.43
2023-12-05T21:12:26.341Z,-6.34
2023-12-05T21:16:29.633Z,-6.24
2023-12-05T21:20:33.141Z,-6.13
2023-12-05T21:24:37.591Z,-6.05
2023-12-05T21:28:41.669Z,-5.97
2023-12-05T21:32:44.983Z,-5.87
2023-12-05T21:36:49.260Z,-5.80
2023-12-05T21:40:52.772Z,-5.75
2023-12-05T21:44:56.097Z,-5.70
2023-12-05T21:49:02.665Z,-5.65
2023-12-05T21:53:06.143Z,-5.58
2023-12-05T21:57:09.568Z,-5.51
2023-12-05T22:01:14.733Z,-5.45
2023-12-05T22:05:19.848Z,-5.43
2023-12-05T22:09:23.243Z,-5.39
2023-12-05T22:13:30.914Z,-5.37
2023-12-05T22:17:35.234Z,-5.41
2023-12-05T22:21:43.039Z,-5.40
2023-12-05T22:25:50.001Z,-5.41
2023-12-05T22:29:55.984Z,-5.43
2023-12-05T22:34:00.117Z,-5.45
2023-12-05T22:38:03.482Z,-5.46
2023-12-05T22:42:06.866Z,-5.47
2023-12-05T22:46:11.690Z,-5.48
2023-12-05T22:50:15.343Z,-5.48
2023-12-05T22:54:18.924Z,-5.46
2023-12-05T22:58:22.214Z,-5.43
2023-12-05T23:02:25.608Z,-5.42
2023-12-05T23:06:28.932Z,-5.41
2023-12-05T23:10:34.288Z,-5.42
2023-12-05T23:14:37.863Z,-5.44
2023-12-05T23:18:41.139Z,-5.46
2023-12-05T23:22:45.195Z,-5.48
2023-12-05T23:26:48.436Z,-5.51
2023-12-05T23:30:51.826Z,-5.51
2023-12-05T23:34:55.409Z,-5.54
2023-12-05T23:38:58.742Z,-5.53
2023-12-05T23:43:02.180Z,-5.52
2023-12-05T23:47:05.737Z,-5.52
2023-12-05T23:51:09.068Z,-5.49
2023-12-05T23:55:12.832Z,-5.46
2023-12-05T23:59:16.257Z,-5.42
